createdAt,value
2023-05-23T00:00:08.123Z,76.23
2023-05-23T00:02:36.149Z,76.46
2023-05-23T00:05:07.360Z,75.97
2023-05-23T00:07:35.621Z,75.74
2023-05-23T00:10:03.707Z,75.95
2023-05-23T00:12:32.074Z,76.02
2023-05-23T00:15:00.174Z,75.78
2023-05-23T00:17:28.387Z,75.77
2023-05-23T00:19:57.409Z,75.73
2023-05-23T00:22:28.507Z,75.75
2023-05-23T00:24:57.891Z,75.86
2023-05-23T00:27:26.240Z,75.45
2023-05-23T00:29:54.534Z,75.33
2023-05-23T00:32:22.631Z,75.10
2023-05-23T00:34:50.645Z,75.08
2023-05-23T00:37:18.965Z,75.20
2023-05-23T00:39:49.374Z,75.62
2023-05-23T00:42:18.015Z,75.30
2023-05-23T00:44:48.590Z,75.44
2023-05-23T00:47:16.950Z,75.20
2023-05-23T00:49:45.639Z,75.43
2023-05-23T00:52:14.173Z,75.54
2023-05-23T00:54:42.709Z,75.51
2023-05-23T00:57:12.640Z,75.36
2023-05-23T00:59:41.672Z,75.49
2023-05-23T01:02:11.855Z,75.44
2023-05-23T01:04:40.555Z,75.50
2023-05-23T01:07:10.408Z,75.65
2023-05-23T01:09:39.012Z,75.85
2023-05-23T01:12:27.179Z,76.13
2023-05-23T01:15:05.269Z,76.33
2023-05-23T01:17:43.551Z,76.61
2023-05-23T01:20:14.538Z,76.34
2023-05-23T01:23:06.968Z,75.95
2023-05-23T01:25:59.937Z,75.72
2023-05-23T01:28:33.673Z,76.66
2023-05-23T01:31:05.236Z,76.96
2023-05-23T01:33:36.065Z,76.89
2023-05-23T01:36:04.738Z,76.81
2023-05-23T01:38:33.070Z,76.72
2023-05-23T01:41:01.590Z,76.52
2023-05-23T01:43:31.774Z,77.12
2023-05-23T01:46:01.881Z,76.96
2023-05-23T01:48:31.040Z,76.93
2023-05-23T01:51:00.147Z,77.12
2023-05-23T01:53:28.908Z,76.58
2023-05-23T01:55:57.289Z,76.75
2023-05-23T01:58:26.082Z,76.99
2023-05-23T02:00:56.199Z,76.92
2023-05-23T02:03:24.741Z,77.02
2023-05-23T02:05:53.191Z,77.52
2023-05-23T02:08:21.759Z,77.82
2023-05-23T02:10:49.910Z,77.99
2023-05-23T02:13:18.169Z,77.83
2023-05-23T02:15:46.496Z,78.24
2023-05-23T02:18:16.377Z,77.91
2023-05-23T02:20:44.525Z,77.88
2023-05-23T02:23:12.930Z,78.09
2023-05-23T02:25:41.330Z,77.90
2023-05-23T02:28:12.480Z,78.20
2023-05-23T02:30:40.636Z,77.61
2023-05-23T02:33:09.503Z,76.87
2023-05-23T02:35:39.641Z,76.40
2023-05-23T02:38:07.809Z,76.20
2023-05-23T02:40:36.092Z,76.08
2023-05-23T02:43:04.025Z,76.42
2023-05-23T02:45:32.313Z,77.05
2023-05-23T02:48:00.360Z,77.71
2023-05-23T02:50:28.608Z,77.96
2023-05-23T02:52:58.197Z,77.90
2023-05-23T02:55:26.500Z,77.71
2023-05-23T02:57:54.426Z,77.05
2023-05-23T03:00:22.716Z,76.99
2023-05-23T03:02:50.716Z,77.29
2023-05-23T03:05:19.937Z,77.30
2023-05-23T03:07:48.063Z,76.66
2023-05-23T03:10:19.338Z,76.59
2023-05-23T03:12:47.597Z,76.79
2023-05-23T03:15:15.554Z,76.74
2023-05-23T03:17:44.043Z,77.30
2023-05-23T03:20:12.698Z,77.62
2023-05-23T03:22:43.583Z,77.90
2023-05-23T03:25:11.620Z,78.47
2023-05-23T03:27:44.087Z,78.26
2023-05-23T03:30:12.226Z,78.30
2023-05-23T03:32:40.211Z,77.93
2023-05-23T03:35:09.075Z,78.58
2023-05-23T03:37:37.083Z,78.91
2023-05-23T03:40:07.159Z,78.69
2023-05-23T03:42:36.447Z,78.66
2023-05-23T03:45:07.395Z,79.01
2023-05-23T03:47:35.920Z,79.36
2023-05-23T03:50:03.968Z,79.25
2023-05-23T03:52:32.229Z,79.62
2023-05-23T03:55:00.044Z,79.71
2023-05-23T03:57:28.124Z,79.98
2023-05-23T03:59:56.014Z,79.85
2023-05-23T04:02:25.649Z,79.41
2023-05-23T04:04:54.334Z,79.68
2023-05-23T04:07:22.935Z,79.98
2023-05-23T04:09:51.043Z,79.86
2023-05-23T04:12:19.398Z,79.64
2023-05-23T04:14:48.599Z,79.84
2023-05-23T04:17:16.681Z,80.09
2023-05-23T04:19:46.076Z,80.25
2023-05-23T04:22:14.009Z,80.00
2023-05-23T04:24:42.101Z,79.82
2023-05-23T04:27:10.266Z,80.34
2023-05-23T04:29:38.501Z,80.80
2023-05-23T04:32:06.855Z,80.97
2023-05-23T04:34:36.318Z,80.98
2023-05-23T04:37:07.246Z,80.64
2023-05-23T04:39:37.751Z,80.76
2023-05-23T04:42:07.440Z,80.76
2023-05-23T04:44:37.682Z,80.97
2023-05-23T04:47:09.062Z,81.22
2023-05-23T04:49:39.974Z,81.58
2023-05-23T04:52:09.542Z,81.18
2023-05-23T04:54:45.095Z,80.97
2023-05-23T04:57:13.474Z,81.22
2023-05-23T04:59:42.807Z,80.97
2023-05-23T05:02:11.140Z,81.33
2023-05-23T05:04:39.053Z,81.46
2023-05-23T05:07:07.859Z,81.90
2023-05-23T05:09:37.561Z,82.03
2023-05-23T05:12:05.791Z,82.60
2023-05-23T05:14:33.972Z,82.70
2023-05-23T05:17:03.057Z,82.77
2023-05-23T05:19:31.942Z,82.47
2023-05-23T05:22:00.504Z,82.25
2023-05-23T05:24:31.529Z,82.11
2023-05-23T05:27:01.756Z,81.82
2023-05-23T05:29:30.226Z,81.45
2023-05-23T05:31:58.313Z,81.31
2023-05-23T05:34:27.062Z,81.82
2023-05-23T05:36:56.695Z,81.77
2023-05-23T05:39:27.463Z,81.79
2023-05-23T05:41:56.439Z,81.39
2023-05-23T05:44:27.271Z,81.22
2023-05-23T05:46:56.046Z,80.92
2023-05-23T05:49:24.538Z,80.87
2023-05-23T05:51:54.659Z,80.47
2023-05-23T05:54:23.238Z,80.43
2023-05-23T05:56:51.355Z,80.14
2023-05-23T05:59:19.683Z,79.90
2023-05-23T06:01:51.566Z,80.22
2023-05-23T06:04:20.498Z,79.55
2023-05-23T06:06:48.831Z,79.02
2023-05-23T06:09:16.795Z,78.32
2023-05-23T06:11:44.802Z,78.56
2023-05-23T06:14:12.717Z,77.44
2023-05-23T06:16:41.402Z,76.92
2023-05-23T06:19:11.158Z,76.36
2023-05-23T06:21:39.789Z,76.81
2023-05-23T06:24:08.173Z,76.46
2023-05-23T06:26:38.266Z,76.87
2023-05-23T06:29:06.878Z,76.44
2023-05-23T06:31:36.433Z,76.34
2023-05-23T06:34:04.668Z,76.29
2023-05-23T06:36:43.172Z,76.84
2023-05-23T06:39:12.683Z,76.33
2023-05-23T06:41:41.360Z,76.50
2023-05-23T06:44:10.513Z,76.27
2023-05-23T06:46:40.546Z,76.25
2023-05-23T06:49:14.842Z,76.65
2023-05-23T06:51:54.650Z,76.86
2023-05-23T06:54:56.430Z,76.69
2023-05-23T06:57:50.279Z,76.33
2023-05-23T07:00:19.644Z,76.26
2023-05-23T07:02:48.933Z,76.23
2023-05-23T07:05:17.697Z,76.91
2023-05-23T07:07:47.901Z,77.53
2023-05-23T07:10:26.452Z,77.39
2023-05-23T07:12:54.553Z,76.58
2023-05-23T07:15:22.668Z,76.23
2023-05-23T07:17:50.967Z,76.60
2023-05-23T07:20:19.171Z,76.44
2023-05-23T07:22:48.886Z,76.29
2023-05-23T07:25:17.083Z,76.84
2023-05-23T07:27:45.892Z,76.55
2023-05-23T07:30:15.157Z,76.36
2023-05-23T07:32:43.939Z,76.38
2023-05-23T07:35:26.930Z,76.69
2023-05-23T07:37:58.124Z,76.66
2023-05-23T07:40:26.561Z,76.80
2023-05-23T07:42:55.904Z,76.94
2023-05-23T07:45:24.383Z,77.51
2023-05-23T07:47:53.200Z,78.21
2023-05-23T07:50:21.866Z,78.45
2023-05-23T07:52:51.837Z,78.97
2023-05-23T07:55:21.734Z,78.20
2023-05-23T07:57:50.289Z,78.28
2023-05-23T08:00:19.376Z,78.32
2023-05-23T08:02:47.537Z,78.13
2023-05-23T08:05:16.109Z,78.58
2023-05-23T08:07:44.220Z,78.29
2023-05-23T08:10:12.761Z,78.33
2023-05-23T08:12:42.625Z,78.50
2023-05-23T08:15:12.015Z,78.64
2023-05-23T08:17:41.362Z,78.47
2023-05-23T08:20:12.633Z,78.32
2023-05-23T08:22:44.525Z,77.87
2023-05-23T08:25:13.247Z,77.80
2023-05-23T08:27:43.180Z,78.01
2023-05-23T08:30:12.944Z,77.84
2023-05-23T08:32:41.072Z,77.58
2023-05-23T08:35:10.105Z,77.64
2023-05-23T08:37:42.109Z,77.51
2023-05-23T08:40:16.918Z,77.68
2023-05-23T08:42:47.340Z,78.31
2023-05-23T08:45:15.876Z,77.63
2023-05-23T08:47:45.184Z,76.87
2023-05-23T08:50:14.777Z,75.79
2023-05-23T08:52:49.215Z,76.11
2023-05-23T08:55:18.867Z,75.33
2023-05-23T08:57:57.848Z,75.04
2023-05-23T09:00:27.130Z,75.32
2023-05-23T09:02:55.685Z,74.14
2023-05-23T09:05:23.924Z,74.47
2023-05-23T09:07:52.440Z,75.39
2023-05-23T09:10:21.133Z,75.29
2023-05-23T09:12:50.841Z,75.14
2023-05-23T09:15:19.110Z,75.92
2023-05-23T09:17:47.152Z,76.09
2023-05-23T09:20:16.767Z,75.01
2023-05-23T09:22:47.550Z,75.65
2023-05-23T09:25:15.925Z,75.51
2023-05-23T09:27:46.858Z,75.96
2023-05-23T09:30:19.508Z,76.08
2023-05-23T09:33:05.445Z,75.70
2023-05-23T09:35:33.965Z,76.24
2023-05-23T09:38:01.867Z,74.64
2023-05-23T09:40:33.728Z,73.40
2023-05-23T09:43:05.211Z,73.72
2023-05-23T09:45:35.624Z,73.73
2023-05-23T09:48:03.836Z,72.71
2023-05-23T09:50:38.516Z,72.17
2023-05-23T09:53:06.759Z,72.34
2023-05-23T09:55:34.746Z,70.14
2023-05-23T09:58:04.156Z,69.25
2023-05-23T10:00:35.091Z,67.84
2023-05-23T10:03:14.895Z,65.42
2023-05-23T10:05:46.314Z,64.42
2023-05-23T10:08:17.508Z,62.65
2023-05-23T10:11:31.318Z,61.80
2023-05-23T10:14:02.751Z,62.04
2023-05-23T10:16:39.986Z,61.50
2023-05-23T10:19:12.217Z,61.26
2023-05-23T10:21:46.858Z,60.97
2023-05-23T10:24:15.506Z,60.44
2023-05-23T10:26:46.339Z,59.77
2023-05-23T10:29:14.422Z,60.04
2023-05-23T10:31:44.890Z,59.87
2023-05-23T10:34:20.080Z,60.58
2023-05-23T10:36:57.440Z,59.82
2023-05-23T10:39:34.947Z,59.76
2023-05-23T10:42:08.657Z,59.56
2023-05-23T10:44:38.451Z,59.60
2023-05-23T10:47:09.115Z,60.67
2023-05-23T10:49:42.097Z,60.27
2023-05-23T10:52:11.228Z,60.17
2023-05-23T10:54:44.050Z,60.04
2023-05-23T10:57:13.451Z,59.17
2023-05-23T10:59:42.528Z,59.62
2023-05-23T11:02:15.874Z,58.93
2023-05-23T11:04:44.388Z,57.95
2023-05-23T11:07:39.436Z,57.71
2023-05-23T11:10:11.707Z,57.10
2023-05-23T11:12:41.356Z,57.68
2023-05-23T11:15:52.713Z,57.79
2023-05-23T11:18:29.022Z,58.55
2023-05-23T11:20:59.918Z,58.48
2023-05-23T11:23:42.021Z,58.66
2023-05-23T11:26:30.918Z,59.13
2023-05-23T11:28:59.464Z,58.96
2023-05-23T11:31:28.193Z,58.47
2023-05-23T11:33:57.756Z,59.09
2023-05-23T11:36:26.051Z,57.11
2023-05-23T11:38:54.154Z,57.22
2023-05-23T11:41:22.175Z,55.70
2023-05-23T11:43:53.212Z,55.84
2023-05-23T11:46:21.650Z,55.94
2023-05-23T11:48:51.322Z,53.99
2023-05-23T11:51:21.899Z,52.55
2023-05-23T11:53:50.596Z,53.41
2023-05-23T11:56:18.768Z,52.61
2023-05-23T11:58:52.054Z,52.07
2023-05-23T12:01:20.336Z,51.90
2023-05-23T12:03:51.583Z,52.09
2023-05-23T12:06:24.613Z,51.29
2023-05-23T12:08:54.342Z,50.57
2023-05-23T12:11:26.512Z,50.68
2023-05-23T12:13:55.196Z,50.92
2023-05-23T12:16:23.638Z,50.13
2023-05-23T12:18:55.391Z,49.73
2023-05-23T12:21:27.537Z,49.96
2023-05-23T12:23:56.531Z,48.32
2023-05-23T12:26:24.900Z,49.11
2023-05-23T12:28:53.037Z,49.61
2023-05-23T12:31:24.296Z,49.03
2023-05-23T12:33:55.190Z,47.59
2023-05-23T12:36:31.925Z,46.96
2023-05-23T12:39:05.649Z,47.33
2023-05-23T12:41:35.230Z,48.02
2023-05-23T12:44:04.973Z,48.76
2023-05-23T12:46:34.555Z,47.34
2023-05-23T12:49:03.221Z,47.83
2023-05-23T12:51:37.136Z,47.60
2023-05-23T12:54:06.809Z,48.04
2023-05-23T12:56:34.996Z,47.82
2023-05-23T12:59:04.513Z,47.40
2023-05-23T13:01:34.651Z,48.16
2023-05-23T13:04:02.718Z,48.43
2023-05-23T13:06:33.418Z,47.80
2023-05-23T13:09:06.336Z,46.22
2023-05-23T13:11:34.645Z,46.31
2023-05-23T13:14:02.832Z,46.39
2023-05-23T13:16:31.182Z,46.30
2023-05-23T13:19:00.305Z,46.32
2023-05-23T13:21:29.232Z,45.64
2023-05-23T13:23:59.421Z,45.74
2023-05-23T13:26:27.940Z,46.62
2023-05-23T13:28:56.492Z,45.74
2023-05-23T13:31:24.984Z,45.17
2023-05-23T13:33:53.428Z,45.22
2023-05-23T13:36:23.898Z,45.36
2023-05-23T13:38:52.256Z,44.60
2023-05-23T13:41:22.117Z,43.71
2023-05-23T13:43:50.668Z,43.58
2023-05-23T13:46:18.786Z,43.44
2023-05-23T13:48:47.287Z,43.81
2023-05-23T13:51:15.659Z,44.84
2023-05-23T13:53:44.601Z,44.21
2023-05-23T13:56:12.884Z,44.53
2023-05-23T13:58:43.028Z,45.06
2023-05-23T14:01:11.109Z,45.08
2023-05-23T14:03:39.753Z,44.92
2023-05-23T14:06:12.565Z,43.93
2023-05-23T14:08:41.372Z,43.97
2023-05-23T14:11:13.910Z,44.54
2023-05-23T14:13:45.074Z,44.93
2023-05-23T14:16:15.189Z,44.09
2023-05-23T14:18:43.437Z,43.87
2023-05-23T14:21:12.035Z,44.18
2023-05-23T14:23:40.388Z,43.85
2023-05-23T14:26:09.117Z,44.61
2023-05-23T14:28:39.839Z,43.25
2023-05-23T14:31:10.247Z,42.71
2023-05-23T14:33:39.443Z,42.65
2023-05-23T14:36:08.666Z,42.52
2023-05-23T14:38:40.123Z,43.78
2023-05-23T14:41:08.584Z,43.05
2023-05-23T14:43:37.555Z,43.26
2023-05-23T14:46:10.231Z,43.50
2023-05-23T14:48:41.982Z,43.76
2023-05-23T14:51:11.263Z,44.64
2023-05-23T14:53:40.349Z,43.79
2023-05-23T14:56:18.386Z,43.55
2023-05-23T14:58:48.157Z,43.69
2023-05-23T15:01:18.765Z,43.87
2023-05-23T15:03:47.463Z,44.21
2023-05-23T15:06:19.986Z,44.79
2023-05-23T15:08:52.126Z,45.67
2023-05-23T15:11:20.594Z,45.99
2023-05-23T15:13:52.155Z,45.71
2023-05-23T15:16:24.957Z,45.34
2023-05-23T15:18:54.782Z,45.75
2023-05-23T15:21:50.936Z,44.91
2023-05-23T15:24:28.363Z,45.07
2023-05-23T15:27:08.175Z,45.22
2023-05-23T15:29:47.355Z,45.75
2023-05-23T15:32:18.413Z,45.74
2023-05-23T15:34:47.064Z,46.41
2023-05-23T15:37:15.315Z,45.32
2023-05-23T15:39:56.219Z,44.63
2023-05-23T15:42:24.712Z,44.91
2023-05-23T15:44:52.823Z,44.82
2023-05-23T15:47:22.541Z,44.16
2023-05-23T15:50:00.759Z,42.95
2023-05-23T15:52:39.606Z,43.46
2023-05-23T15:55:12.783Z,44.07
2023-05-23T15:59:05.706Z,43.19
2023-05-23T16:01:33.378Z,43.07
2023-05-23T16:04:37.401Z,43.00
2023-05-23T16:07:34.618Z,43.88
2023-05-23T16:10:50.657Z,43.42
2023-05-23T16:13:31.706Z,43.44
2023-05-23T16:16:00.256Z,43.58
2023-05-23T16:18:58.359Z,43.47
2023-05-23T16:21:32.581Z,44.62
2023-05-23T16:24:10.520Z,44.42
2023-05-23T16:29:57.017Z,45.55
2023-05-23T16:56:19.991Z,47.11
2023-05-23T16:58:50.600Z,46.88
2023-05-23T17:05:33.008Z,47.24
2023-05-23T17:08:57.059Z,46.33
2023-05-23T17:11:32.796Z,46.30
2023-05-23T17:17:51.641Z,46.17
2023-05-23T17:20:46.465Z,45.82
2023-05-23T17:27:32.999Z,45.54
2023-05-23T17:30:59.586Z,45.19
2023-05-23T17:34:07.541Z,45.81
2023-05-23T17:37:04.607Z,45.58
2023-05-23T17:39:58.816Z,46.09
2023-05-23T17:42:32.373Z,44.91
2023-05-23T17:45:05.148Z,45.21
2023-05-23T17:47:50.487Z,45.38
2023-05-23T17:53:15.595Z,46.06
2023-05-23T17:55:44.566Z,45.87
2023-05-23T17:58:13.139Z,45.88
2023-05-23T18:00:41.681Z,45.69
2023-05-23T18:03:12.361Z,45.82
2023-05-23T18:05:40.544Z,45.79
2023-05-23T18:08:08.836Z,46.09
2023-05-23T18:10:40.536Z,46.25
2023-05-23T18:13:09.389Z,46.08
2023-05-23T18:15:50.987Z,45.84
2023-05-23T18:18:21.261Z,45.94
2023-05-23T18:20:49.290Z,46.33
2023-05-23T18:23:17.687Z,46.56
2023-05-23T18:25:45.759Z,46.53
2023-05-23T18:28:14.021Z,47.12
2023-05-23T18:30:42.039Z,46.97
2023-05-23T18:33:10.195Z,47.17
2023-05-23T18:35:40.069Z,47.25
2023-05-23T18:38:08.396Z,47.14
2023-05-23T18:40:38.293Z,47.42
2023-05-23T18:43:09.048Z,47.22
2023-05-23T18:45:42.827Z,47.26
2023-05-23T18:48:11.224Z,47.63
2023-05-23T18:50:41.080Z,47.35
2023-05-23T18:53:09.393Z,47.55
2023-05-23T18:56:01.224Z,47.40
2023-05-23T18:58:33.615Z,47.89
2023-05-23T19:01:04.062Z,47.31
2023-05-23T19:03:33.638Z,48.01
2023-05-23T19:06:07.132Z,48.10
2023-05-23T19:08:53.786Z,48.07
2023-05-23T19:11:24.857Z,48.60
2023-05-23T19:13:53.024Z,48.49
2023-05-23T19:16:21.726Z,48.60
2023-05-23T19:18:50.148Z,49.07
2023-05-23T19:21:21.072Z,48.80
2023-05-23T19:23:49.529Z,48.92
2023-05-23T19:26:19.250Z,49.17
2023-05-23T19:28:54.562Z,49.23
2023-05-23T19:31:23.270Z,49.30
2023-05-23T19:33:53.556Z,49.32
2023-05-23T19:36:40.351Z,49.43
2023-05-23T19:39:08.832Z,49.83
2023-05-23T19:41:40.101Z,49.49
2023-05-23T19:44:08.320Z,49.70
2023-05-23T19:46:38.230Z,50.23
2023-05-23T19:49:09.567Z,50.29
2023-05-23T19:51:39.327Z,50.54
2023-05-23T19:54:09.519Z,50.91
2023-05-23T19:56:41.628Z,50.50
2023-05-23T19:59:15.036Z,50.66
2023-05-23T20:01:44.169Z,51.29
2023-05-23T20:04:16.074Z,51.16
2023-05-23T20:09:42.754Z,51.12
2023-05-23T20:12:11.110Z,51.20
2023-05-23T20:14:47.316Z,51.33
2023-05-23T20:17:15.698Z,51.59
2023-05-23T20:20:06.599Z,51.74
2023-05-23T20:22:38.480Z,51.88
2023-05-23T20:25:20.519Z,51.67
2023-05-23T20:27:50.660Z,51.70
2023-05-23T20:30:25.448Z,52.11
2023-05-23T20:32:55.115Z,51.84
2023-05-23T20:35:23.831Z,52.27
2023-05-23T20:37:58.647Z,51.74
2023-05-23T20:40:29.726Z,52.08
2023-05-23T20:43:04.518Z,52.01
2023-05-23T20:45:33.742Z,52.33
2023-05-23T20:48:47.844Z,52.85
2023-05-23T20:51:22.896Z,52.75
2023-05-23T20:53:54.959Z,53.27
2023-05-23T20:56:25.136Z,53.27
2023-05-23T20:58:54.429Z,53.79
2023-05-23T21:01:23.726Z,53.96
2023-05-23T21:03:54.019Z,53.99
2023-05-23T21:06:22.588Z,54.00
2023-05-23T21:08:53.093Z,54.20
2023-05-23T21:11:23.296Z,54.57
2023-05-23T21:13:51.590Z,54.58
2023-05-23T21:16:19.838Z,54.12
2023-05-23T21:18:48.295Z,54.98
2023-05-23T21:21:22.062Z,55.07
2023-05-23T21:23:52.224Z,55.03
2023-05-23T21:26:22.454Z,55.19
2023-05-23T21:28:54.689Z,55.28
2023-05-23T21:31:33.154Z,55.71
2023-05-23T21:34:23.378Z,55.41
2023-05-23T21:36:52.317Z,55.50
2023-05-23T21:39:20.708Z,55.68
2023-05-23T21:41:51.000Z,55.71
2023-05-23T21:44:25.465Z,55.69
2023-05-23T21:46:53.914Z,56.31
2023-05-23T21:49:23.286Z,56.35
2023-05-23T21:51:51.563Z,56.43
2023-05-23T21:54:20.086Z,56.19
2023-05-23T21:56:48.357Z,56.45
2023-05-23T21:59:16.714Z,56.24
2023-05-23T22:01:46.479Z,56.48
2023-05-23T22:04:14.800Z,56.36
2023-05-23T22:06:43.123Z,56.54
2023-05-23T22:09:11.821Z,56.78
2023-05-23T22:11:40.164Z,56.69
2023-05-23T22:14:08.614Z,56.68
2023-05-23T22:16:39.542Z,56.83
2023-05-23T22:19:10.395Z,57.10
2023-05-23T22:21:41.938Z,57.19
2023-05-23T22:24:10.191Z,57.50
2023-05-23T22:26:39.573Z,57.81
2023-05-23T22:29:07.966Z,57.64
2023-05-23T22:31:38.981Z,57.91
2023-05-23T22:34:10.872Z,58.09
2023-05-23T22:36:39.196Z,58.09
2023-05-23T22:39:14.289Z,58.43
2023-05-23T22:41:42.585Z,58.44
2023-05-23T22:44:10.814Z,58.29
2023-05-23T22:46:40.060Z,58.22
2023-05-23T22:49:10.355Z,58.26
2023-05-23T22:51:44.837Z,58.76
2023-05-23T22:54:13.194Z,58.84
2023-05-23T22:56:42.908Z,59.19
2023-05-23T22:59:11.227Z,59.21
2023-05-23T23:01:39.629Z,59.71
2023-05-23T23:04:15.199Z,60.17
2023-05-23T23:06:45.395Z,59.47
2023-05-23T23:09:18.086Z,59.97
2023-05-23T23:11:46.344Z,60.15
2023-05-23T23:14:14.634Z,60.40
2023-05-23T23:16:43.564Z,60.50
2023-05-23T23:19:13.669Z,60.54
2023-05-23T23:21:44.096Z,60.67
2023-05-23T23:24:13.950Z,60.58
2023-05-23T23:26:42.061Z,61.08
2023-05-23T23:29:12.489Z,61.23
2023-05-23T23:31:40.819Z,61.64
2023-05-23T23:34:08.928Z,61.77
2023-05-23T23:36:40.182Z,61.87
2023-05-23T23:39:10.111Z,62.11
2023-05-23T23:41:41.285Z,62.18
2023-05-23T23:44:09.685Z,62.08
2023-05-23T23:46:43.589Z,62.44
2023-05-23T23:49:11.822Z,62.73
2023-05-23T23:51:41.593Z,63.24
2023-05-23T23:54:10.379Z,62.85
2023-05-23T23:56:41.617Z,63.27
2023-05-23T23:59:09.757Z,62.58
